createdAt,value
2023-01-17T00:01:54.060Z,18.45
2023-01-17T00:04:39.706Z,15.73
2023-01-17T00:07:30.192Z,15.68
2023-01-17T00:09:59.116Z,17.70
2023-01-17T00:12:28.656Z,16.45
2023-01-17T00:14:58.801Z,19.15
2023-01-17T00:17:28.321Z,13.07
2023-01-17T00:20:14.647Z,14.07
2023-01-17T00:23:03.239Z,11.20
2023-01-17T00:26:07.596Z,17.52
2023-01-17T00:28:36.079Z,16.27
2023-01-17T00:31:04.180Z,15.43
2023-01-17T00:33:31.452Z,11.60
2023-01-17T00:35:59.513Z,12.88
2023-01-17T00:38:29.588Z,15.40
2023-01-17T00:41:02.130Z,14.10
2023-01-17T00:43:48.362Z,15.05
2023-01-17T00:46:34.392Z,20.75
2023-01-17T00:49:20.097Z,26.20
2023-01-17T00:52:05.366Z,13.93
2023-01-17T00:54:52.345Z,19.45
2023-01-17T00:57:37.989Z,21.52
2023-01-17T01:00:25.174Z,13.35
2023-01-17T01:03:10.763Z,13.55
2023-01-17T01:05:57.518Z,14.70
2023-01-17T01:08:45.162Z,31.63
2023-01-17T01:11:34.176Z,15.32
2023-01-17T01:14:20.175Z,13.63
2023-01-17T01:17:05.694Z,14.13
2023-01-17T01:19:51.572Z,14.07
2023-01-17T01:22:37.262Z,15.32
2023-01-17T01:25:23.805Z,16.42
2023-01-17T01:28:10.673Z,17.17
2023-01-17T01:30:56.323Z,12.20
2023-01-17T01:33:23.345Z,13.48
2023-01-17T01:35:53.842Z,10.07
2023-01-17T01:38:24.091Z,14.05
2023-01-17T01:40:54.475Z,14.18
2023-01-17T01:43:46.940Z,12.53
2023-01-17T01:46:21.364Z,11.60
2023-01-17T01:48:53.682Z,15.45
2023-01-17T01:51:25.074Z,22.45
2023-01-17T01:56:24.543Z,14.27
2023-01-17T01:58:54.861Z,14.88
2023-01-17T02:01:23.009Z,12.50
2023-01-17T02:03:51.580Z,10.63
2023-01-17T02:06:31.343Z,10.27
2023-01-17T02:09:04.278Z,12.95
2023-01-17T02:11:34.852Z,16.30
2023-01-17T02:14:04.739Z,10.82
2023-01-17T02:16:48.917Z,18.52
2023-01-17T02:19:48.943Z,17.70
2023-01-17T02:23:01.027Z,17.58
2023-01-17T02:25:58.801Z,22.70
2023-01-17T02:28:40.691Z,16.00
2023-01-17T02:31:16.472Z,20.48
2023-01-17T02:33:52.744Z,17.70
2023-01-17T02:36:27.248Z,15.63
2023-01-17T02:39:00.906Z,17.52
2023-01-17T02:41:34.080Z,13.82
2023-01-17T02:44:03.651Z,19.67
2023-01-17T02:46:33.159Z,14.40
2023-01-17T02:49:01.754Z,16.42
2023-01-17T02:51:54.032Z,13.43
2023-01-17T02:54:37.497Z,13.27
2023-01-17T02:57:20.934Z,12.75
2023-01-17T03:00:00.421Z,21.23
2023-01-17T03:02:40.704Z,14.95
2023-01-17T03:05:14.802Z,12.07
2023-01-17T03:07:44.666Z,16.42
2023-01-17T03:10:16.619Z,16.67
2023-01-17T03:12:45.161Z,15.57
2023-01-17T03:15:15.081Z,14.57
2023-01-17T03:17:50.677Z,12.85
2023-01-17T03:20:19.048Z,11.63
2023-01-17T03:22:47.151Z,13.05
2023-01-17T03:25:15.478Z,14.25
2023-01-17T03:27:43.749Z,20.20
2023-01-17T03:30:13.186Z,14.23
2023-01-17T03:32:41.636Z,15.25
2023-01-17T03:35:11.506Z,14.02
2023-01-17T03:37:39.642Z,12.60
2023-01-17T03:40:09.126Z,17.67
2023-01-17T03:42:37.360Z,19.83
2023-01-17T03:45:06.196Z,20.92
2023-01-17T03:47:36.441Z,19.35
2023-01-17T03:50:04.818Z,19.67
2023-01-17T03:52:34.541Z,24.38
2023-01-17T03:55:02.820Z,18.35
2023-01-17T03:57:31.003Z,13.48
2023-01-17T03:59:59.236Z,14.25
2023-01-17T04:02:27.348Z,13.73
2023-01-17T04:04:55.535Z,17.08
2023-01-17T04:07:24.324Z,12.90
2023-01-17T04:09:54.766Z,14.50
2023-01-17T04:12:23.088Z,18.00
2023-01-17T04:14:51.177Z,16.95
2023-01-17T04:17:21.290Z,18.63
2023-01-17T04:19:49.631Z,13.75
2023-01-17T04:22:17.788Z,9.38
2023-01-17T04:24:45.973Z,10.52
2023-01-17T04:27:16.182Z,10.77
2023-01-17T04:29:46.685Z,15.85
2023-01-17T04:32:15.138Z,13.93
2023-01-17T04:34:43.364Z,16.60
2023-01-17T04:37:11.524Z,13.52
2023-01-17T04:39:39.631Z,11.50
2023-01-17T04:42:07.792Z,13.02
2023-01-17T04:44:37.733Z,11.30
2023-01-17T04:47:05.915Z,15.68
2023-01-17T04:49:34.053Z,13.95
2023-01-17T04:52:02.282Z,11.70
2023-01-17T04:54:30.435Z,12.00
2023-01-17T04:56:58.681Z,13.07
2023-01-17T04:59:26.999Z,8.10
2023-01-17T05:01:56.954Z,9.32
2023-01-17T05:04:25.551Z,10.88
2023-01-17T05:06:53.850Z,11.27
2023-01-17T05:09:21.949Z,9.60
2023-01-17T05:11:50.230Z,8.18
2023-01-17T05:14:18.303Z,12.38
2023-01-17T05:16:46.402Z,14.80
2023-01-17T05:19:15.971Z,12.27
2023-01-17T05:21:44.117Z,11.75
2023-01-17T05:24:12.492Z,10.25
2023-01-17T05:26:40.835Z,11.38
2023-01-17T05:29:09.052Z,16.75
2023-01-17T05:31:37.584Z,16.50
2023-01-17T05:34:06.006Z,11.02
2023-01-17T05:36:35.529Z,13.57
2023-01-17T05:39:03.595Z,12.07
2023-01-17T05:41:31.753Z,11.40
2023-01-17T05:43:59.928Z,13.07
2023-01-17T05:46:28.133Z,10.02
2023-01-17T05:48:56.394Z,8.38
2023-01-17T05:51:24.494Z,13.48
2023-01-17T05:53:53.969Z,10.07
2023-01-17T05:56:22.526Z,11.25
2023-01-17T05:58:50.738Z,15.27
2023-01-17T06:01:19.711Z,10.02
2023-01-17T06:03:48.093Z,12.05
2023-01-17T06:06:16.196Z,11.30
2023-01-17T06:08:44.315Z,9.73
2023-01-17T06:11:13.847Z,11.93
2023-01-17T06:13:42.117Z,9.75
2023-01-17T06:16:10.345Z,10.52
2023-01-17T06:18:38.497Z,10.38
2023-01-17T06:21:07.053Z,10.07
2023-01-17T06:23:35.134Z,14.88
2023-01-17T06:26:04.795Z,10.50
2023-01-17T06:28:34.321Z,10.80
2023-01-17T06:31:07.372Z,14.25
2023-01-17T06:33:35.623Z,10.45
2023-01-17T06:36:03.746Z,8.68
2023-01-17T06:38:31.956Z,6.70
2023-01-17T06:41:00.663Z,13.18
2023-01-17T06:43:33.645Z,15.23
2023-01-17T06:46:03.532Z,10.40
2023-01-17T06:48:31.871Z,12.07
2023-01-17T06:50:59.968Z,7.38
2023-01-17T06:53:28.135Z,11.02
2023-01-17T06:55:57.903Z,13.88
2023-01-17T06:58:26.173Z,10.43
2023-01-17T07:00:54.807Z,12.90
2023-01-17T07:03:25.972Z,11.73
2023-01-17T07:05:54.675Z,9.82
2023-01-17T07:08:23.254Z,16.00
2023-01-17T07:10:51.452Z,8.25
2023-01-17T07:13:19.708Z,8.73
2023-01-17T07:15:47.923Z,10.85
2023-01-17T07:18:20.588Z,11.98
2023-01-17T07:20:50.545Z,8.75
2023-01-17T07:23:19.554Z,7.05
2023-01-17T07:25:52.904Z,11.05
2023-01-17T07:28:21.233Z,9.50
2023-01-17T07:30:50.059Z,10.05
2023-01-17T07:33:19.584Z,8.63
2023-01-17T07:35:49.383Z,5.32
2023-01-17T07:38:20.049Z,10.88
2023-01-17T07:40:48.319Z,10.30
2023-01-17T07:43:17.372Z,15.15
2023-01-17T07:45:49.301Z,8.70
2023-01-17T07:48:18.434Z,10.23
2023-01-17T07:50:46.689Z,8.27
2023-01-17T07:53:17.223Z,9.25
2023-01-17T07:55:45.843Z,9.40
2023-01-17T07:58:15.080Z,8.27
2023-01-17T08:00:44.900Z,13.43
2023-01-17T08:03:15.315Z,10.35
2023-01-17T08:05:45.004Z,9.27
2023-01-17T08:08:13.179Z,12.48
2023-01-17T08:10:42.673Z,9.15
2023-01-17T08:13:10.822Z,8.80
2023-01-17T08:15:38.949Z,9.60
2023-01-17T08:18:07.235Z,17.08
2023-01-17T08:20:35.830Z,10.80
2023-01-17T08:23:03.924Z,10.35
2023-01-17T08:25:33.147Z,8.13
2023-01-17T08:28:03.076Z,13.52
2023-01-17T08:30:31.375Z,6.75
2023-01-17T08:32:59.590Z,10.50
2023-01-17T08:35:28.091Z,9.43
2023-01-17T08:37:57.746Z,10.57
2023-01-17T08:40:26.047Z,5.03
2023-01-17T08:42:57.850Z,7.93
2023-01-17T08:45:28.591Z,5.47
2023-01-17T08:47:58.723Z,6.55
2023-01-17T08:50:27.441Z,7.32
2023-01-17T08:53:01.221Z,7.07
2023-01-17T08:55:30.145Z,10.43
2023-01-17T08:57:58.824Z,13.13
2023-01-17T09:00:30.012Z,7.93
2023-01-17T09:02:58.193Z,8.55
2023-01-17T09:05:26.529Z,7.88
2023-01-17T09:07:56.648Z,11.10
2023-01-17T09:10:25.209Z,7.90
2023-01-17T09:12:54.647Z,8.45
2023-01-17T09:15:22.923Z,10.15
2023-01-17T09:17:55.994Z,11.43
2023-01-17T09:20:24.491Z,10.45
2023-01-17T09:22:52.780Z,7.13
2023-01-17T09:25:21.060Z,7.47
2023-01-17T09:27:49.133Z,8.18
2023-01-17T09:30:18.036Z,9.52
2023-01-17T09:32:46.244Z,9.50
2023-01-17T09:35:18.518Z,6.60
2023-01-17T09:37:46.691Z,10.52
2023-01-17T09:40:19.626Z,9.50
2023-01-17T09:42:57.248Z,7.78
2023-01-17T09:45:29.147Z,9.25
2023-01-17T09:47:57.964Z,11.60
2023-01-17T09:50:32.694Z,10.52
2023-01-17T09:53:03.476Z,10.02
2023-01-17T09:55:38.866Z,6.63
2023-01-17T09:58:14.058Z,9.55
2023-01-17T10:00:53.692Z,10.60
2023-01-17T10:03:31.726Z,9.02
2023-01-17T10:06:32.137Z,7.30
2023-01-17T10:09:39.420Z,8.23
2023-01-17T10:12:19.959Z,8.50
2023-01-17T10:15:03.445Z,6.60
2023-01-17T10:17:42.726Z,7.45
2023-01-17T10:20:34.144Z,17.42
2023-01-17T10:25:47.684Z,8.75
2023-01-17T10:28:18.247Z,7.13
2023-01-17T10:30:50.351Z,9.55
2023-01-17T10:33:22.316Z,13.73
2023-01-17T10:35:58.668Z,7.85
2023-01-17T10:38:32.278Z,16.60
2023-01-17T10:41:05.939Z,9.18
2023-01-17T10:43:47.968Z,8.52
2023-01-17T10:46:19.944Z,7.75
2023-01-17T10:48:50.439Z,10.75
2023-01-17T10:51:43.083Z,8.77
2023-01-17T10:54:24.947Z,13.15
2023-01-17T10:56:53.430Z,10.07
2023-01-17T10:59:29.977Z,10.18
2023-01-17T11:01:58.733Z,8.65
2023-01-17T11:04:36.609Z,9.15
2023-01-17T11:07:16.541Z,6.55
2023-01-17T11:09:48.085Z,10.88
2023-01-17T11:12:23.866Z,8.75
2023-01-17T11:15:19.928Z,6.75
2023-01-17T11:17:53.137Z,9.45
2023-01-17T11:20:28.716Z,6.70
2023-01-17T11:23:09.277Z,9.63
2023-01-17T11:25:39.292Z,8.32
2023-01-17T11:28:09.331Z,9.32
2023-01-17T11:30:37.606Z,6.40
2023-01-17T11:33:09.061Z,7.10
2023-01-17T11:35:39.684Z,8.15
2023-01-17T11:38:13.211Z,6.38
2023-01-17T11:40:44.136Z,9.30
2023-01-17T11:43:21.834Z,5.43
2023-01-17T11:46:03.386Z,8.63
2023-01-17T11:48:37.528Z,6.35
2023-01-17T11:51:18.091Z,12.45
2023-01-17T11:53:48.467Z,6.03
2023-01-17T11:56:34.807Z,9.38
2023-01-17T11:59:30.112Z,12.32
2023-01-17T12:02:22.498Z,8.25
2023-01-17T12:04:58.988Z,7.03
2023-01-17T12:07:34.853Z,6.13
2023-01-17T12:10:10.880Z,11.93
2023-01-17T12:13:09.272Z,7.75
2023-01-17T12:15:55.873Z,10.75
2023-01-17T12:18:35.040Z,8.18
2023-01-17T12:21:17.358Z,6.90
2023-01-17T12:24:06.052Z,8.27
2023-01-17T12:26:41.365Z,12.55
2023-01-17T12:29:48.304Z,9.75
2023-01-17T12:32:50.166Z,11.70
2023-01-17T12:35:22.423Z,11.15
2023-01-17T12:38:04.657Z,14.50
2023-01-17T12:40:40.666Z,8.55
2023-01-17T12:43:16.823Z,9.13
2023-01-17T12:45:48.366Z,8.02
2023-01-17T12:48:19.611Z,9.05
2023-01-17T12:50:54.340Z,13.15
2023-01-17T12:53:33.097Z,10.43
2023-01-17T12:56:07.948Z,10.07
2023-01-17T12:58:41.116Z,11.65
2023-01-17T13:01:29.994Z,11.55
2023-01-17T13:04:10.087Z,10.85
2023-01-17T13:06:49.161Z,8.07
2023-01-17T13:09:22.115Z,8.23
2023-01-17T13:11:55.195Z,11.73
2023-01-17T13:14:23.496Z,10.60
2023-01-17T13:16:58.062Z,13.13
2023-01-17T13:19:35.895Z,10.38
2023-01-17T13:22:07.553Z,6.68
2023-01-17T13:24:46.397Z,10.38
2023-01-17T13:27:40.248Z,9.02
2023-01-17T13:30:37.484Z,11.20
2023-01-17T13:33:42.542Z,10.38
2023-01-17T13:36:31.142Z,7.50
2023-01-17T13:39:27.264Z,9.80
2023-01-17T13:42:09.969Z,7.63
2023-01-17T13:44:38.363Z,6.65
2023-01-17T13:47:28.354Z,9.70
2023-01-17T13:49:58.539Z,7.63
2023-01-17T13:52:35.859Z,8.30
2023-01-17T13:55:07.323Z,8.90
2023-01-17T13:57:43.984Z,8.13
2023-01-17T14:00:50.786Z,8.80
2023-01-17T14:04:00.777Z,10.75
2023-01-17T14:06:36.465Z,9.63
2023-01-17T14:09:11.903Z,9.82
2023-01-17T14:11:53.929Z,5.65
2023-01-17T14:14:49.711Z,5.97
2023-01-17T14:17:49.569Z,6.35
2023-01-17T14:20:53.248Z,2.90
2023-01-17T14:24:06.708Z,4.38
2023-01-17T14:26:55.926Z,6.13
2023-01-17T14:29:56.069Z,5.25
2023-01-17T14:32:27.501Z,4.50
2023-01-17T14:34:57.466Z,3.28
2023-01-17T14:37:49.256Z,1.88
2023-01-17T14:40:20.599Z,3.90
2023-01-17T14:45:28.964Z,3.80
2023-01-17T14:47:59.453Z,3.75
2023-01-17T14:50:29.515Z,3.67
2023-01-17T14:53:09.541Z,3.85
2023-01-17T14:55:38.370Z,4.55
2023-01-17T14:58:07.867Z,4.75
2023-01-17T15:00:40.803Z,5.07
2023-01-17T15:03:14.255Z,5.32
2023-01-17T15:05:44.378Z,10.50
2023-01-17T15:08:14.916Z,5.88
2023-01-17T15:10:51.555Z,4.15
2023-01-17T15:13:38.834Z,1.95
2023-01-17T15:16:20.666Z,4.53
2023-01-17T15:18:49.574Z,3.03
2023-01-17T15:21:20.583Z,3.90
2023-01-17T15:23:52.995Z,1.80
2023-01-17T15:26:24.280Z,4.07
2023-01-17T15:28:54.790Z,2.25
2023-01-17T15:31:26.117Z,5.03
2023-01-17T15:36:30.273Z,2.53
2023-01-17T15:39:01.582Z,6.80
2023-01-17T15:44:01.794Z,2.05
2023-01-17T15:46:41.345Z,6.22
2023-01-17T15:49:17.839Z,4.18
2023-01-17T15:51:50.551Z,4.28
2023-01-17T15:54:33.550Z,4.30
2023-01-17T15:57:08.105Z,3.90
2023-01-17T15:59:45.999Z,5.68
2023-01-17T16:02:35.598Z,3.28
2023-01-17T16:05:21.372Z,6.82
2023-01-17T16:07:50.843Z,4.72
2023-01-17T16:10:20.890Z,3.22
2023-01-17T16:12:50.386Z,6.53
2023-01-17T16:15:22.246Z,5.60
2023-01-17T16:17:53.835Z,4.85
2023-01-17T16:20:25.515Z,5.35
2023-01-17T16:22:53.888Z,3.45
2023-01-17T16:25:24.087Z,6.47
2023-01-17T16:27:53.571Z,6.75
2023-01-17T16:30:23.192Z,7.43
2023-01-17T16:32:51.433Z,6.72
2023-01-17T16:35:21.203Z,7.72
2023-01-17T16:37:51.176Z,4.50
2023-01-17T16:40:20.509Z,7.25
2023-01-17T16:42:48.752Z,5.70
2023-01-17T16:45:18.020Z,11.88
2023-01-17T16:47:49.667Z,8.50
2023-01-17T16:50:22.429Z,7.20
2023-01-17T16:52:50.874Z,6.72
2023-01-17T16:55:22.281Z,10.02
2023-01-17T16:57:51.029Z,11.65
2023-01-17T17:00:20.038Z,9.23
2023-01-17T17:02:52.893Z,8.30
2023-01-17T17:05:21.341Z,7.47
2023-01-17T17:07:51.746Z,18.98
2023-01-17T17:10:22.111Z,9.20
2023-01-17T17:12:50.299Z,13.07
2023-01-17T17:15:18.657Z,8.38
2023-01-17T17:17:48.152Z,10.90
2023-01-17T17:20:18.762Z,8.88
2023-01-17T17:22:51.757Z,8.70
2023-01-17T17:25:20.234Z,5.45
2023-01-17T17:27:48.424Z,8.20
2023-01-17T17:30:17.209Z,4.32
2023-01-17T17:32:48.105Z,6.38
2023-01-17T17:35:18.289Z,7.63
2023-01-17T17:37:46.520Z,9.52
2023-01-17T17:40:14.725Z,5.05
2023-01-17T17:42:43.767Z,10.45
2023-01-17T17:45:12.690Z,6.40
2023-01-17T17:47:40.818Z,5.82
2023-01-17T17:50:10.539Z,11.35
2023-01-17T17:52:40.917Z,12.45
2023-01-17T17:55:10.206Z,7.22
2023-01-17T17:57:38.364Z,8.73
2023-01-17T18:00:07.571Z,6.82
2023-01-17T18:02:35.784Z,8.32
2023-01-17T18:05:04.051Z,10.35
2023-01-17T18:07:33.190Z,7.55
2023-01-17T18:10:03.855Z,8.02
2023-01-17T18:12:32.058Z,7.55
2023-01-17T18:15:00.212Z,7.63
2023-01-17T18:17:28.256Z,7.07
2023-01-17T18:19:56.375Z,9.23
2023-01-17T18:22:24.582Z,9.68
2023-01-17T18:24:52.812Z,9.40
2023-01-17T18:27:23.070Z,7.22
2023-01-17T18:29:51.400Z,11.95
2023-01-17T18:32:20.530Z,12.05
2023-01-17T18:34:48.702Z,8.15
2023-01-17T18:37:16.885Z,8.35
2023-01-17T18:39:45.085Z,11.85
2023-01-17T18:42:13.298Z,8.52
2023-01-17T18:44:43.046Z,8.43
2023-01-17T18:47:13.113Z,5.78
2023-01-17T18:49:41.364Z,5.25
2023-01-17T18:52:09.580Z,8.25
2023-01-17T18:54:37.691Z,8.55
2023-01-17T18:57:05.809Z,9.32
2023-01-17T18:59:33.995Z,6.88
2023-01-17T19:02:03.916Z,8.63
2023-01-17T19:04:34.080Z,9.45
2023-01-17T19:07:02.215Z,8.82
2023-01-17T19:09:32.258Z,10.75
2023-01-17T19:12:01.351Z,8.77
2023-01-17T19:14:29.547Z,9.13
2023-01-17T19:16:58.239Z,7.13
2023-01-17T19:19:28.029Z,4.68
2023-01-17T19:21:56.816Z,10.57
2023-01-17T19:24:25.204Z,7.32
2023-01-17T19:26:54.215Z,11.48
2023-01-17T19:29:22.814Z,7.22
2023-01-17T19:31:51.050Z,12.77
2023-01-17T19:34:20.474Z,12.07
2023-01-17T19:36:50.014Z,9.68
2023-01-17T19:39:18.164Z,10.57
2023-01-17T19:41:46.509Z,8.18
2023-01-17T19:44:15.919Z,10.13
2023-01-17T19:46:45.588Z,11.15
2023-01-17T19:49:16.358Z,8.98
2023-01-17T19:51:44.910Z,9.88
2023-01-17T19:54:15.340Z,9.15
2023-01-17T19:56:43.535Z,10.87
2023-01-17T19:59:13.846Z,8.90
2023-01-17T20:01:42.131Z,14.00
2023-01-17T20:04:10.467Z,14.68
2023-01-17T20:06:38.758Z,7.00
2023-01-17T20:09:07.607Z,7.28
2023-01-17T20:11:37.263Z,13.48
2023-01-17T20:14:06.314Z,9.20
2023-01-17T20:16:37.260Z,7.25
2023-01-17T20:19:05.652Z,7.07
2023-01-17T20:21:34.517Z,13.52
2023-01-17T20:24:06.325Z,8.98
2023-01-17T20:26:37.373Z,9.98
2023-01-17T20:29:10.477Z,7.07
2023-01-17T20:31:40.141Z,7.10
2023-01-17T20:34:10.826Z,7.10
2023-01-17T20:36:39.842Z,6.95
2023-01-17T20:39:09.296Z,8.75
2023-01-17T20:41:42.296Z,11.80
2023-01-17T20:44:12.894Z,4.95
2023-01-17T20:46:42.172Z,11.02
2023-01-17T20:49:15.650Z,8.52
2023-01-17T20:51:45.086Z,8.35
2023-01-17T20:54:15.861Z,9.95
2023-01-17T20:56:47.657Z,12.35
2023-01-17T20:59:17.872Z,8.27
2023-01-17T21:01:46.744Z,10.32
2023-01-17T21:04:15.283Z,7.53
2023-01-17T21:06:44.794Z,8.02
2023-01-17T21:09:15.290Z,8.25
2023-01-17T21:11:43.507Z,9.00
2023-01-17T21:14:13.476Z,7.05
2023-01-17T21:16:42.145Z,9.65
2023-01-17T21:19:12.212Z,7.65
2023-01-17T21:21:40.518Z,9.40
2023-01-17T21:24:08.661Z,5.00
2023-01-17T21:26:38.948Z,8.20
2023-01-17T21:29:07.541Z,9.02
2023-01-17T21:31:39.731Z,7.97
2023-01-17T21:34:09.569Z,12.35
2023-01-17T21:36:40.005Z,8.20
2023-01-17T21:39:11.439Z,6.00
2023-01-17T21:41:41.271Z,9.25
2023-01-17T21:44:14.329Z,8.45
2023-01-17T21:46:44.001Z,6.15
2023-01-17T21:49:13.309Z,6.47
2023-01-17T21:51:58.996Z,5.70
2023-01-17T21:54:46.061Z,6.75
2023-01-17T21:57:33.576Z,8.35
2023-01-17T22:00:01.854Z,7.05
2023-01-17T22:02:31.469Z,8.90
2023-01-17T22:04:59.729Z,9.70
2023-01-17T22:07:29.172Z,4.05
2023-01-17T22:09:58.061Z,5.50
2023-01-17T22:12:26.219Z,5.47
2023-01-17T22:14:55.147Z,6.97
2023-01-17T22:17:23.700Z,6.57
2023-01-17T22:19:53.363Z,5.68
2023-01-17T22:22:21.799Z,7.03
2023-01-17T22:24:50.548Z,8.48
2023-01-17T22:27:20.304Z,10.55
2023-01-17T22:29:48.585Z,6.75
2023-01-17T22:32:16.702Z,7.03
2023-01-17T22:34:44.828Z,7.25
2023-01-17T22:37:14.691Z,6.13
2023-01-17T22:39:42.947Z,8.68
2023-01-17T22:42:11.786Z,4.95
2023-01-17T22:44:40.097Z,13.85
2023-01-17T22:47:08.368Z,7.88
2023-01-17T22:49:36.497Z,10.93
2023-01-17T22:52:04.914Z,7.43
2023-01-17T22:54:34.612Z,6.28
2023-01-17T22:57:06.289Z,9.75
2023-01-17T22:59:35.433Z,11.32
2023-01-17T23:02:03.559Z,13.80
2023-01-17T23:04:31.896Z,8.23
2023-01-17T23:06:59.975Z,9.57
2023-01-17T23:09:31.123Z,7.78
2023-01-17T23:14:51.981Z,7.70
2023-01-17T23:17:38.683Z,7.68
2023-01-17T23:20:08.652Z,8.82
2023-01-17T23:22:37.041Z,8.77
2023-01-17T23:25:08.040Z,7.50
2023-01-17T23:27:59.501Z,10.82
2023-01-17T23:30:34.850Z,8.10
2023-01-17T23:33:05.189Z,8.48
2023-01-17T23:35:35.513Z,4.38
2023-01-17T23:38:21.317Z,5.27
2023-01-17T23:41:09.710Z,9.75
2023-01-17T23:43:38.483Z,5.22
2023-01-17T23:46:07.089Z,8.95
2023-01-17T23:48:35.292Z,5.80
2023-01-17T23:51:08.203Z,3.65
2023-01-17T23:53:38.310Z,3.67
2023-01-17T23:56:08.777Z,3.33
2023-01-17T23:58:38.563Z,8.03
